createdAt,value
2018-12-07T00:02:22.715Z,12.60
2018-12-07T00:04:50.289Z,12.70
2018-12-07T00:07:17.833Z,12.60
2018-12-07T00:09:45.404Z,12.60
2018-12-07T00:12:12.982Z,12.60
2018-12-07T00:14:40.555Z,12.60
2018-12-07T00:17:08.087Z,12.60
2018-12-07T00:19:36.420Z,12.60
2018-12-07T00:22:03.956Z,12.60
2018-12-07T00:24:31.528Z,12.60
2018-12-07T00:26:59.108Z,12.60
2018-12-07T00:29:26.692Z,12.50
2018-12-07T00:31:55.199Z,12.50
2018-12-07T00:34:22.774Z,12.50
2018-12-07T00:36:50.348Z,12.40
2018-12-07T00:39:17.915Z,12.40
2018-12-07T00:41:45.455Z,12.40
2018-12-07T00:44:13.040Z,12.40
2018-12-07T00:46:40.613Z,12.40
2018-12-07T00:49:08.946Z,12.40
2018-12-07T00:51:36.492Z,12.40
2018-12-07T00:54:04.060Z,12.40
2018-12-07T00:56:31.632Z,12.30
2018-12-07T00:59:01.137Z,12.30
2018-12-07T01:01:28.680Z,12.30
2018-12-07T01:03:56.261Z,12.30
2018-12-07T01:06:23.845Z,12.30
2018-12-07T01:08:53.390Z,12.40
2018-12-07T01:11:20.934Z,12.40
2018-12-07T01:13:48.502Z,12.40
2018-12-07T01:16:16.076Z,12.40
2018-12-07T01:18:43.660Z,12.40
2018-12-07T01:21:11.195Z,12.50
2018-12-07T01:23:38.766Z,12.40
2018-12-07T01:26:06.340Z,12.50
2018-12-07T01:28:33.886Z,12.50
2018-12-07T01:31:01.427Z,12.40
2018-12-07T01:33:29.008Z,12.50
2018-12-07T01:35:57.504Z,12.40
2018-12-07T01:38:25.075Z,12.40
2018-12-07T01:40:52.661Z,12.40
2018-12-07T01:43:20.232Z,12.40
2018-12-07T01:45:47.780Z,12.50
2018-12-07T01:48:15.351Z,12.50
2018-12-07T01:50:42.918Z,12.50
2018-12-07T01:53:10.508Z,12.50
2018-12-07T01:55:38.810Z,12.50
2018-12-07T01:58:06.380Z,12.50
2018-12-07T02:00:33.956Z,12.50
2018-12-07T02:03:01.491Z,12.50
2018-12-07T02:05:30.027Z,12.50
2018-12-07T02:07:57.560Z,12.50
2018-12-07T02:10:25.132Z,12.50
2018-12-07T02:12:52.669Z,12.50
2018-12-07T02:15:20.236Z,12.50
2018-12-07T02:17:47.836Z,12.40
2018-12-07T02:20:15.409Z,12.50
2018-12-07T02:22:42.939Z,12.50
2018-12-07T02:25:10.508Z,12.50
2018-12-07T02:27:39.008Z,12.50
2018-12-07T02:30:06.574Z,12.50
2018-12-07T02:32:35.094Z,12.50
2018-12-07T02:35:02.671Z,12.50
2018-12-07T02:37:30.224Z,12.40
2018-12-07T02:39:58.556Z,12.50
2018-12-07T02:42:26.106Z,12.50
2018-12-07T02:44:53.676Z,12.50
2018-12-07T02:47:21.216Z,12.60
2018-12-07T02:49:48.787Z,12.60
2018-12-07T02:52:16.326Z,12.60
2018-12-07T02:54:43.889Z,12.60
2018-12-07T02:57:11.430Z,12.50
2018-12-07T02:59:38.971Z,12.40
2018-12-07T03:02:06.547Z,12.50
2018-12-07T03:04:34.084Z,12.40
2018-12-07T03:07:02.627Z,12.40
2018-12-07T03:09:30.205Z,12.40
2018-12-07T03:11:58.540Z,12.40
2018-12-07T03:14:26.075Z,12.30
2018-12-07T03:16:53.649Z,12.40
2018-12-07T03:19:21.215Z,12.40
2018-12-07T03:21:48.756Z,12.40
2018-12-07T03:24:16.329Z,12.40
2018-12-07T03:26:43.905Z,12.40
2018-12-07T03:29:11.472Z,12.40
2018-12-07T03:31:39.036Z,12.40
2018-12-07T03:34:07.388Z,12.40
2018-12-07T03:36:34.970Z,12.40
2018-12-07T03:39:03.317Z,12.40
2018-12-07T03:41:31.865Z,12.30
2018-12-07T03:43:59.431Z,12.30
2018-12-07T03:46:27.005Z,12.30
2018-12-07T03:48:54.581Z,12.30
2018-12-07T03:51:22.128Z,12.30
2018-12-07T03:53:49.704Z,12.30
2018-12-07T03:56:17.247Z,12.30
2018-12-07T03:58:44.816Z,12.30
2018-12-07T04:01:12.365Z,12.20
2018-12-07T04:03:41.726Z,12.20
2018-12-07T04:06:07.530Z,12.20
2018-12-07T04:08:35.112Z,12.30
2018-12-07T04:11:02.650Z,12.20
2018-12-07T04:13:30.219Z,12.20
2018-12-07T04:15:57.759Z,12.20
2018-12-07T04:18:25.294Z,12.20
2018-12-07T04:20:52.864Z,12.20
2018-12-07T04:23:20.404Z,12.10
2018-12-07T04:25:47.989Z,12.10
2018-12-07T04:28:16.512Z,12.10
2018-12-07T04:30:45.066Z,12.10
2018-12-07T04:33:12.607Z,12.10
2018-12-07T04:35:40.193Z,12.10
2018-12-07T04:38:07.736Z,12.10
2018-12-07T04:40:35.275Z,12.10
2018-12-07T04:43:02.844Z,12.10
2018-12-07T04:45:30.424Z,12.10
2018-12-07T04:47:57.993Z,12.10
2018-12-07T04:50:25.537Z,12.10
2018-12-07T04:52:53.108Z,12.00
2018-12-07T04:55:30.488Z,11.90
2018-12-07T04:57:58.024Z,11.90
2018-12-07T05:00:27.529Z,11.90
2018-12-07T05:02:55.065Z,11.90
2018-12-07T05:05:24.596Z,11.90
2018-12-07T05:07:54.117Z,11.90
2018-12-07T05:10:21.655Z,11.90
2018-12-07T05:12:49.296Z,11.80
2018-12-07T05:15:16.878Z,11.80
2018-12-07T05:17:44.425Z,11.80
2018-12-07T05:20:12.007Z,11.80
2018-12-07T05:22:39.562Z,11.80
2018-12-07T05:25:07.144Z,11.70
2018-12-07T05:27:34.687Z,11.70
2018-12-07T05:30:02.226Z,11.70
2018-12-07T05:32:29.799Z,11.70
2018-12-07T05:34:57.365Z,11.70
2018-12-07T05:37:24.899Z,11.70
2018-12-07T05:39:52.467Z,11.70
2018-12-07T05:42:20.040Z,11.70
2018-12-07T05:44:47.605Z,11.70
2018-12-07T05:47:15.143Z,11.70
2018-12-07T05:49:42.716Z,11.70
2018-12-07T05:52:11.020Z,11.70
2018-12-07T05:54:38.588Z,11.70
2018-12-07T05:57:06.134Z,11.70
2018-12-07T05:59:33.700Z,11.70
2018-12-07T06:02:01.276Z,11.60
2018-12-07T06:04:28.850Z,11.70
2018-12-07T06:06:56.469Z,11.70
2018-12-07T06:09:24.000Z,11.70
2018-12-07T06:11:52.528Z,11.60
2018-12-07T06:14:22.039Z,11.70
2018-12-07T06:16:49.575Z,11.80
2018-12-07T06:19:17.147Z,11.70
2018-12-07T06:21:44.683Z,11.70
2018-12-07T06:24:12.296Z,11.70
2018-12-07T06:26:39.836Z,11.70
2018-12-07T06:29:07.405Z,11.60
2018-12-07T06:31:34.975Z,11.60
2018-12-07T06:34:02.549Z,11.60
2018-12-07T06:36:30.096Z,11.60
2018-12-07T06:38:57.663Z,11.70
2018-12-07T06:41:26.905Z,11.70
2018-12-07T06:43:54.472Z,11.70
2018-12-07T06:46:22.008Z,11.70
2018-12-07T06:48:58.405Z,11.70
2018-12-07T06:51:25.983Z,11.80
2018-12-07T06:53:53.550Z,11.70
2018-12-07T06:56:21.100Z,11.70
2018-12-07T06:58:48.678Z,11.70
2018-12-07T07:01:16.376Z,11.80
2018-12-07T07:03:43.958Z,11.80
2018-12-07T07:06:11.505Z,11.70
2018-12-07T07:08:39.075Z,11.80
2018-12-07T07:11:07.631Z,11.90
2018-12-07T07:13:35.212Z,11.80
2018-12-07T07:16:02.746Z,11.80
2018-12-07T07:18:30.312Z,11.90
2018-12-07T07:20:57.896Z,11.90
2018-12-07T07:23:25.485Z,11.90
2018-12-07T07:25:53.029Z,11.90
2018-12-07T07:28:20.601Z,11.80
2018-12-07T07:30:48.179Z,11.80
2018-12-07T07:33:15.755Z,11.80
2018-12-07T07:35:43.303Z,11.80
2018-12-07T07:38:10.871Z,11.90
2018-12-07T07:40:38.437Z,11.90
2018-12-07T07:43:05.977Z,11.90
2018-12-07T07:45:33.570Z,12.00
2018-12-07T07:48:01.139Z,12.00
2018-12-07T07:50:29.469Z,12.10
2018-12-07T07:52:57.034Z,12.10
2018-12-07T07:55:24.580Z,12.00
2018-12-07T07:57:52.147Z,11.90
2018-12-07T08:00:19.720Z,11.90
2018-12-07T08:02:47.296Z,12.00
2018-12-07T08:05:14.831Z,12.00
2018-12-07T08:07:42.404Z,12.10
2018-12-07T08:10:09.939Z,12.10
2018-12-07T08:12:38.468Z,12.00
2018-12-07T08:15:06.016Z,12.00
2018-12-07T08:17:34.358Z,12.10
2018-12-07T08:20:01.930Z,12.10
2018-12-07T08:22:29.469Z,12.10
2018-12-07T08:24:57.035Z,12.10
2018-12-07T08:27:24.599Z,12.20
2018-12-07T08:29:52.131Z,12.20
2018-12-07T08:32:21.659Z,12.20
2018-12-07T08:34:49.193Z,12.10
2018-12-07T08:37:16.782Z,12.00
2018-12-07T08:39:44.320Z,11.90
2018-12-07T08:42:11.861Z,12.00
2018-12-07T08:44:39.428Z,12.00
2018-12-07T08:47:07.000Z,12.00
2018-12-07T08:49:40.268Z,12.00
2018-12-07T08:52:07.800Z,12.00
2018-12-07T08:54:35.368Z,12.00
2018-12-07T08:57:02.940Z,12.10
2018-12-07T08:59:30.477Z,12.10
2018-12-07T09:01:58.046Z,11.90
2018-12-07T09:04:25.588Z,11.90
2018-12-07T09:06:53.160Z,11.90
2018-12-07T09:09:20.706Z,12.00
2018-12-07T09:11:48.275Z,12.10
2018-12-07T09:14:15.810Z,12.10
2018-12-07T09:16:43.691Z,12.30
2018-12-07T09:19:11.228Z,12.20
2018-12-07T09:21:38.792Z,12.20
2018-12-07T09:24:06.325Z,12.20
2018-12-07T09:26:34.673Z,12.40
2018-12-07T09:29:02.209Z,12.30
2018-12-07T09:31:29.744Z,12.40
2018-12-07T09:33:57.309Z,12.30
2018-12-07T09:36:24.880Z,12.10
2018-12-07T09:38:52.451Z,12.10
2018-12-07T09:41:20.000Z,12.20
2018-12-07T09:43:47.594Z,12.30
2018-12-07T09:46:15.175Z,12.30
2018-12-07T09:48:42.744Z,12.30
2018-12-07T09:51:10.279Z,12.50
2018-12-07T09:53:37.851Z,12.60
2018-12-07T09:56:07.395Z,12.60
2018-12-07T09:58:34.960Z,12.50
2018-12-07T10:01:02.502Z,12.40
2018-12-07T10:03:32.029Z,12.30
2018-12-07T10:05:59.603Z,12.20
2018-12-07T10:08:27.184Z,12.40
2018-12-07T10:10:54.757Z,12.50
2018-12-07T10:13:22.295Z,12.50
2018-12-07T10:15:49.886Z,12.60
2018-12-07T10:18:17.423Z,12.80
2018-12-07T10:20:45.024Z,12.70
2018-12-07T10:23:12.588Z,12.60
2018-12-07T10:25:40.163Z,12.70
2018-12-07T10:28:07.728Z,12.40
2018-12-07T10:30:35.264Z,12.40
2018-12-07T10:33:02.836Z,12.50
2018-12-07T10:35:32.336Z,12.60
2018-12-07T10:38:00.684Z,12.50
2018-12-07T10:40:28.228Z,12.50
2018-12-07T10:42:55.813Z,12.60
2018-12-07T10:45:23.379Z,12.40
2018-12-07T10:47:50.952Z,12.30
2018-12-07T10:50:19.452Z,12.10
2018-12-07T10:52:47.021Z,12.10
2018-12-07T10:55:14.593Z,12.00
2018-12-07T10:57:42.124Z,11.90
2018-12-07T11:00:10.688Z,12.10
2018-12-07T11:02:43.902Z,12.00
2018-12-07T11:05:17.127Z,12.10
2018-12-07T11:07:50.172Z,12.20
2018-12-07T11:10:23.420Z,12.10
2018-12-07T11:12:56.721Z,12.10
2018-12-07T11:15:30.622Z,12.10
2018-12-07T11:18:03.862Z,12.10
2018-12-07T11:20:36.984Z,12.10
2018-12-07T11:23:10.149Z,12.00
2018-12-07T11:25:44.267Z,12.00
2018-12-07T11:28:18.204Z,12.20
2018-12-07T11:30:51.340Z,12.20
2018-12-07T11:33:35.814Z,12.30
2018-12-07T11:36:08.090Z,12.60
2018-12-07T11:38:31.956Z,12.50
2018-12-07T11:41:00.505Z,12.50
2018-12-07T11:43:28.075Z,12.60
2018-12-07T11:45:55.610Z,12.40
2018-12-07T11:48:23.178Z,12.50
2018-12-07T11:50:50.707Z,12.40
2018-12-07T11:53:20.212Z,12.00
2018-12-07T11:55:48.516Z,12.10
2018-12-07T11:58:16.096Z,12.00
2018-12-07T12:00:43.638Z,12.00
2018-12-07T12:03:12.131Z,12.10
2018-12-07T12:05:39.715Z,12.20
2018-12-07T12:08:07.247Z,12.00
2018-12-07T12:10:34.811Z,11.80
2018-12-07T12:13:04.319Z,12.00
2018-12-07T12:15:31.853Z,12.00
2018-12-07T12:17:59.426Z,11.90
2018-12-07T12:20:26.959Z,12.00
2018-12-07T12:22:54.527Z,12.20
2018-12-07T12:25:22.081Z,12.30
2018-12-07T12:27:49.660Z,12.30
2018-12-07T12:30:17.904Z,12.20
2018-12-07T12:32:45.555Z,12.10
2018-12-07T12:35:13.129Z,12.10
2018-12-07T12:37:40.669Z,12.00
2018-12-07T12:40:08.248Z,11.90
2018-12-07T12:42:35.814Z,11.90
2018-12-07T12:45:03.361Z,11.90
2018-12-07T12:47:30.932Z,11.80
2018-12-07T12:49:58.472Z,11.70
2018-12-07T12:52:26.044Z,11.80
2018-12-07T12:54:53.587Z,11.90
2018-12-07T12:57:21.157Z,11.90
2018-12-07T12:59:48.784Z,11.90
2018-12-07T13:02:16.352Z,11.80
2018-12-07T13:04:43.888Z,11.80
2018-12-07T13:07:11.460Z,11.80
2018-12-07T13:09:38.992Z,11.90
2018-12-07T13:12:07.292Z,11.80
2018-12-07T13:14:34.867Z,11.70
2018-12-07T13:17:02.628Z,11.80
2018-12-07T13:19:30.205Z,11.80
2018-12-07T13:21:57.745Z,11.80
2018-12-07T13:24:25.318Z,11.70
2018-12-07T13:26:52.882Z,11.80
2018-12-07T13:29:22.393Z,11.80
2018-12-07T13:31:49.929Z,11.70
2018-12-07T13:34:17.495Z,11.70
2018-12-07T13:36:45.064Z,11.60
2018-12-07T13:39:12.633Z,11.70
2018-12-07T13:41:40.185Z,11.60
2018-12-07T13:44:07.895Z,11.70
2018-12-07T13:46:35.652Z,11.70
2018-12-07T13:49:03.906Z,11.70
2018-12-07T13:51:31.457Z,11.70
2018-12-07T13:54:01.006Z,11.60
2018-12-07T13:56:28.631Z,11.60
2018-12-07T13:58:56.304Z,11.70
2018-12-07T14:01:24.896Z,11.80
2018-12-07T14:03:52.611Z,11.80
2018-12-07T14:06:20.137Z,11.80
2018-12-07T14:08:47.646Z,11.80
2018-12-07T14:11:15.303Z,11.70
2018-12-07T14:13:42.822Z,11.80
2018-12-07T14:16:10.531Z,11.80
2018-12-07T14:18:37.967Z,11.80
2018-12-07T14:21:07.529Z,11.80
2018-12-07T14:23:35.934Z,11.80
2018-12-07T14:26:02.748Z,11.80
2018-12-07T14:28:30.351Z,11.80
2018-12-07T14:30:58.919Z,11.90
2018-12-07T14:33:26.632Z,11.90
2018-12-07T14:35:54.156Z,11.80
2018-12-07T14:38:23.721Z,11.90
2018-12-07T14:40:51.334Z,11.90
2018-12-07T14:43:19.082Z,11.90
2018-12-07T14:45:46.616Z,11.90
2018-12-07T14:48:14.249Z,12.00
2018-12-07T14:50:41.798Z,11.90
2018-12-07T14:53:09.390Z,11.90
2018-12-07T14:55:37.932Z,11.90
2018-12-07T14:58:05.554Z,11.80
2018-12-07T15:00:33.197Z,11.90
2018-12-07T15:03:00.924Z,11.80
2018-12-07T15:05:29.264Z,11.80
2018-12-07T15:07:57.043Z,11.80
2018-12-07T15:10:24.567Z,11.70
2018-12-07T15:12:52.134Z,11.60
2018-12-07T15:15:19.694Z,11.60
2018-12-07T15:17:47.478Z,11.60
2018-12-07T15:20:14.852Z,11.60
2018-12-07T15:22:42.638Z,11.60
2018-12-07T15:25:10.120Z,11.60
2018-12-07T15:27:37.798Z,11.50
2018-12-07T15:30:05.429Z,11.50
2018-12-07T15:32:34.046Z,11.50
2018-12-07T15:35:01.710Z,11.50
2018-12-07T15:37:31.256Z,11.50
2018-12-07T15:39:58.682Z,11.50
2018-12-07T15:42:26.337Z,11.50
2018-12-07T15:44:54.151Z,11.50
2018-12-07T15:47:21.605Z,11.50
2018-12-07T15:49:49.336Z,11.50
2018-12-07T15:52:16.814Z,11.50
2018-12-07T15:54:44.399Z,11.40
2018-12-07T15:57:12.048Z,11.40
2018-12-07T15:59:41.305Z,11.20
2018-12-07T16:02:09.033Z,11.20
2018-12-07T16:04:37.590Z,11.30
2018-12-07T16:07:07.823Z,11.10
2018-12-07T16:09:36.396Z,11.10
2018-12-07T16:12:04.895Z,11.10
2018-12-07T16:14:32.614Z,11.00
2018-12-07T16:16:59.899Z,11.00
2018-12-07T16:19:27.630Z,11.00
2018-12-07T16:21:55.235Z,11.10
2018-12-07T16:24:22.815Z,11.10
2018-12-07T16:26:50.318Z,11.10
2018-12-07T16:29:19.007Z,11.20
2018-12-07T16:31:46.477Z,11.20
2018-12-07T16:34:14.081Z,11.20
2018-12-07T16:36:41.811Z,11.20
2018-12-07T16:39:10.361Z,11.20
2018-12-07T16:41:38.093Z,11.30
2018-12-07T16:44:05.477Z,11.30
2018-12-07T16:46:33.072Z,11.30
2018-12-07T16:49:00.888Z,11.40
2018-12-07T16:51:29.269Z,11.50
2018-12-07T16:53:56.863Z,11.50
2018-12-07T16:56:24.534Z,11.50
2018-12-07T16:58:52.204Z,11.50
2018-12-07T17:01:19.688Z,11.50
2018-12-07T17:03:47.192Z,11.50
2018-12-07T17:06:14.985Z,11.60
2018-12-07T17:08:42.454Z,11.50
2018-12-07T17:11:09.987Z,11.30
2018-12-07T17:13:37.627Z,11.10
2018-12-07T17:16:05.367Z,10.90
2018-12-07T17:18:32.811Z,10.70
2018-12-07T17:21:01.322Z,10.20
2018-12-07T17:23:28.749Z,10.10
2018-12-07T17:25:56.387Z,10.10
2018-12-07T17:28:24.129Z,10.10
2018-12-07T17:30:51.604Z,10.00
2018-12-07T17:33:19.345Z,10.00
2018-12-07T17:35:46.741Z,10.10
2018-12-07T17:38:14.327Z,10.10
2018-12-07T17:40:42.045Z,10.10
2018-12-07T17:43:10.611Z,10.10
2018-12-07T17:45:38.100Z,10.10
2018-12-07T17:48:05.684Z,10.20
2018-12-07T17:50:33.476Z,10.20
2018-12-07T17:53:00.873Z,10.20
2018-12-07T17:55:28.587Z,10.40
2018-12-07T17:57:56.048Z,10.50
2018-12-07T18:00:24.751Z,10.50
2018-12-07T18:02:52.202Z,10.60
2018-12-07T18:05:19.893Z,10.70
2018-12-07T18:07:47.615Z,10.70
2018-12-07T18:10:15.807Z,10.80
2018-12-07T18:12:43.499Z,10.80
2018-12-07T18:15:11.030Z,10.80
2018-12-07T18:17:38.651Z,10.90
2018-12-07T18:20:06.457Z,10.80
2018-12-07T18:22:34.551Z,11.10
2018-12-07T18:25:02.175Z,11.10
2018-12-07T18:27:29.734Z,11.10
2018-12-07T18:29:57.310Z,11.20
2018-12-07T18:32:24.955Z,11.30
2018-12-07T18:34:52.567Z,11.30
2018-12-07T18:37:20.118Z,11.40
2018-12-07T18:39:48.132Z,11.40
2018-12-07T18:42:16.782Z,11.40
2018-12-07T18:44:44.329Z,11.40
2018-12-07T18:47:12.549Z,11.50
2018-12-07T18:49:40.097Z,11.50
2018-12-07T18:52:07.776Z,11.60
2018-12-07T18:54:35.365Z,11.60
2018-12-07T18:57:02.926Z,11.80
2018-12-07T18:59:30.722Z,11.80
2018-12-07T19:01:58.131Z,11.80
2018-12-07T19:04:25.939Z,11.80
2018-12-07T19:06:53.372Z,11.80
2018-12-07T19:09:21.179Z,11.80
2018-12-07T19:11:48.589Z,11.80
2018-12-07T19:14:16.223Z,11.80
2018-12-07T19:16:43.949Z,11.80
2018-12-07T19:19:11.451Z,11.70
2018-12-07T19:21:40.101Z,11.60
2018-12-07T19:24:08.450Z,11.30
2018-12-07T19:26:36.715Z,11.20
2018-12-07T19:29:04.410Z,11.20
2018-12-07T19:31:31.892Z,11.20
2018-12-07T19:33:59.467Z,11.20
2018-12-07T19:36:27.388Z,11.20
2018-12-07T19:38:54.763Z,11.20
2018-12-07T19:41:22.300Z,11.20
2018-12-07T19:43:49.835Z,11.20
2018-12-07T19:46:18.199Z,11.20
2018-12-07T19:48:45.743Z,11.20
2018-12-07T19:51:13.626Z,11.20
2018-12-07T19:53:41.019Z,11.10
2018-12-07T19:56:08.668Z,11.00
2018-12-07T19:58:36.235Z,10.90
2018-12-07T20:01:03.758Z,10.30
2018-12-07T20:03:31.327Z,9.80
2018-12-07T20:05:59.628Z,9.30
2018-12-07T20:08:28.458Z,9.30
2018-12-07T20:10:55.876Z,9.30
2018-12-07T20:13:23.435Z,9.20
2018-12-07T20:15:50.971Z,9.20
2018-12-07T20:18:18.551Z,9.30
2018-12-07T20:20:46.159Z,9.30
2018-12-07T20:23:13.719Z,9.30
2018-12-07T20:25:42.213Z,9.30
2018-12-07T20:28:11.663Z,9.30
2018-12-07T20:30:40.425Z,9.30
2018-12-07T20:33:07.913Z,9.30
2018-12-07T20:35:35.576Z,9.40
2018-12-07T20:38:03.220Z,9.40
2018-12-07T20:40:30.784Z,9.40
2018-12-07T20:43:00.381Z,9.40
2018-12-07T20:45:28.067Z,9.40
2018-12-07T20:47:55.647Z,9.50
2018-12-07T20:50:23.408Z,9.50
2018-12-07T20:52:51.519Z,9.50
2018-12-07T20:55:19.144Z,9.40
2018-12-07T20:57:46.913Z,9.40
2018-12-07T21:00:14.437Z,9.50
2018-12-07T21:02:42.172Z,9.40
2018-12-07T21:05:09.705Z,9.50
2018-12-07T21:07:41.937Z,9.40
2018-12-07T21:13:27.918Z,9.30
2018-12-07T21:15:57.899Z,9.20
2018-12-07T21:18:25.607Z,8.90
2018-12-07T21:20:53.395Z,8.50
2018-12-07T21:23:20.819Z,8.10
2018-12-07T21:25:48.355Z,7.80
2018-12-07T21:28:15.923Z,7.60
2018-12-07T21:30:45.567Z,7.60
2018-12-07T21:33:12.990Z,7.50
2018-12-07T21:35:58.447Z,7.50
2018-12-07T21:38:26.242Z,7.50
2018-12-07T21:40:53.617Z,7.50
2018-12-07T21:43:22.057Z,7.50
2018-12-07T21:45:49.666Z,7.50
2018-12-07T21:48:20.044Z,7.40
2018-12-07T21:50:47.640Z,7.40
2018-12-07T21:53:15.434Z,7.20
2018-12-07T21:55:42.822Z,7.20
2018-12-07T21:58:10.410Z,7.30
2018-12-07T22:00:38.887Z,7.30
2018-12-07T22:03:08.514Z,7.30
2018-12-07T22:05:36.156Z,7.30
2018-12-07T22:08:03.899Z,7.30
2018-12-07T22:10:31.337Z,7.20
2018-12-07T22:12:58.884Z,7.30
2018-12-07T22:15:27.529Z,7.30
2018-12-07T22:17:55.366Z,7.30
2018-12-07T22:20:23.195Z,7.30
2018-12-07T22:22:50.826Z,7.40
2018-12-07T22:25:18.359Z,7.40
2018-12-07T22:27:45.704Z,7.40
2018-12-07T22:30:13.687Z,7.10
2018-12-07T22:32:42.462Z,6.60
2018-12-07T22:35:10.010Z,6.00
2018-12-07T22:37:37.550Z,5.50
2018-12-07T22:40:04.900Z,5.40
2018-12-07T22:42:32.689Z,5.30
2018-12-07T22:45:00.052Z,5.40
2018-12-07T22:47:27.589Z,5.40
2018-12-07T22:49:55.161Z,5.30
2018-12-07T22:52:22.728Z,5.10
2018-12-07T22:54:50.297Z,5.00
2018-12-07T22:57:18.796Z,5.00
2018-12-07T22:59:46.355Z,4.90
2018-12-07T23:02:13.900Z,5.00
2018-12-07T23:04:41.471Z,5.10
2018-12-07T23:07:09.036Z,5.20
2018-12-07T23:09:38.882Z,5.10
2018-12-07T23:12:07.187Z,5.30
2018-12-07T23:14:34.727Z,5.30
2018-12-07T23:17:02.398Z,5.30
2018-12-07T23:19:29.872Z,5.20
2018-12-07T23:21:57.439Z,5.10
2018-12-07T23:24:25.009Z,5.10
2018-12-07T23:26:52.539Z,5.10
2018-12-07T23:29:20.111Z,5.10
2018-12-07T23:31:47.652Z,5.00
2018-12-07T23:34:15.219Z,5.00
2018-12-07T23:36:42.783Z,5.10
2018-12-07T23:39:10.350Z,5.30
2018-12-07T23:41:38.857Z,5.30
2018-12-07T23:44:07.184Z,5.40
2018-12-07T23:46:34.752Z,5.40
2018-12-07T23:49:03.264Z,5.50
2018-12-07T23:51:30.835Z,5.70
2018-12-07T23:53:59.147Z,5.80
2018-12-07T23:56:27.713Z,5.80
2018-12-07T23:58:55.246Z,5.80
